sensor_id;sensor_type;location;lat;lon;timestamp;P1;durP1;ratioP1;P2;durP2;ratioP2
2866;SDS011;1441;48.886;8.728;2024-02-26T00:00:28;0.80;;;0.70;;
2866;SDS011;1441;48.886;8.728;2024-02-26T00:02:54;0.83;;;0.83;;
2866;SDS011;1441;48.886;8.728;2024-02-26T00:05:19;0.70;;;0.70;;
2866;SDS011;1441;48.886;8.728;2024-02-26T00:07:45;0.80;;;0.80;;
2866;SDS011;1441;48.886;8.728;2024-02-26T00:10:12;1.13;;;0.80;;
2866;SDS011;1441;48.886;8.728;2024-02-26T00:12:40;1.00;;;0.73;;
2866;SDS011;1441;48.886;8.728;2024-02-26T00:15:09;1.63;;;1.13;;
2866;SDS011;1441;48.886;8.728;2024-02-26T00:17:35;1.37;;;0.70;;
2866;SDS011;1441;48.886;8.728;2024-02-26T00:20:01;1.20;;;0.80;;
2866;SDS011;1441;48.886;8.728;2024-02-26T00:22:33;0.73;;;0.70;;
2866;SDS011;1441;48.886;8.728;2024-02-26T00:24:59;0.83;;;0.80;;
2866;SDS011;1441;48.886;8.728;2024-02-26T00:27:24;1.50;;;0.80;;
2866;SDS011;1441;48.886;8.728;2024-02-26T00:29:50;0.70;;;0.67;;
2866;SDS011;1441;48.886;8.728;2024-02-26T00:32:15;0.70;;;0.70;;
2866;SDS011;1441;48.886;8.728;2024-02-26T00:34:41;1.47;;;0.80;;
2866;SDS011;1441;48.886;8.728;2024-02-26T00:37:06;0.80;;;0.80;;
2866;SDS011;1441;48.886;8.728;2024-02-26T00:39:33;1.10;;;0.73;;
2866;SDS011;1441;48.886;8.728;2024-02-26T00:41:58;0.70;;;0.70;;
2866;SDS011;1441;48.886;8.728;2024-02-26T00:44:24;0.70;;;0.70;;
2866;SDS011;1441;48.886;8.728;2024-02-26T00:46:49;2.60;;;0.80;;
2866;SDS011;1441;48.886;8.728;2024-02-26T00:49:15;0.77;;;0.70;;
2866;SDS011;1441;48.886;8.728;2024-02-26T00:51:40;1.00;;;0.90;;
2866;SDS011;1441;48.886;8.728;2024-02-26T00:54:07;1.77;;;1.67;;
2866;SDS011;1441;48.886;8.728;2024-02-26T00:56:32;1.67;;;1.57;;
2866;SDS011;1441;48.886;8.728;2024-02-26T00:58:58;1.50;;;1.40;;
2866;SDS011;1441;48.886;8.728;2024-02-26T01:01:24;1.50;;;1.43;;
2866;SDS011;1441;48.886;8.728;2024-02-26T01:03:49;1.67;;;1.57;;
2866;SDS011;1441;48.886;8.728;2024-02-26T01:06:15;1.80;;;1.40;;
2866;SDS011;1441;48.886;8.728;2024-02-26T01:08:40;2.20;;;1.70;;
2866;SDS011;1441;48.886;8.728;2024-02-26T01:11:06;2.50;;;1.83;;
2866;SDS011;1441;48.886;8.728;2024-02-26T01:13:32;1.80;;;1.30;;
2866;SDS011;1441;48.886;8.728;2024-02-26T01:15:58;2.13;;;1.23;;
2866;SDS011;1441;48.886;8.728;2024-02-26T01:18:23;1.10;;;1.00;;
2866;SDS011;1441;48.886;8.728;2024-02-26T01:20:49;1.47;;;1.30;;
2866;SDS011;1441;48.886;8.728;2024-02-26T01:23:15;3.30;;;1.37;;
2866;SDS011;1441;48.886;8.728;2024-02-26T01:25:40;1.13;;;1.03;;
2866;SDS011;1441;48.886;8.728;2024-02-26T01:28:07;1.13;;;1.03;;
2866;SDS011;1441;48.886;8.728;2024-02-26T01:30:33;1.73;;;1.20;;
2866;SDS011;1441;48.886;8.728;2024-02-26T01:32:58;3.90;;;0.90;;
2866;SDS011;1441;48.886;8.728;2024-02-26T01:35:24;1.57;;;1.47;;
2866;SDS011;1441;48.886;8.728;2024-02-26T01:37:49;1.60;;;1.00;;
2866;SDS011;1441;48.886;8.728;2024-02-26T01:40:15;2.10;;;1.07;;
2866;SDS011;1441;48.886;8.728;2024-02-26T01:42:44;1.43;;;1.10;;
2866;SDS011;1441;48.886;8.728;2024-02-26T01:45:12;1.20;;;1.10;;
2866;SDS011;1441;48.886;8.728;2024-02-26T01:47:45;1.40;;;1.10;;
2866;SDS011;1441;48.886;8.728;2024-02-26T01:50:11;2.83;;;1.00;;
2866;SDS011;1441;48.886;8.728;2024-02-26T01:52:37;1.20;;;1.10;;
2866;SDS011;1441;48.886;8.728;2024-02-26T01:55:02;1.20;;;1.20;;
2866;SDS011;1441;48.886;8.728;2024-02-26T01:57:28;0.73;;;0.73;;
2866;SDS011;1441;48.886;8.728;2024-02-26T01:59:54;0.97;;;0.90;;
2866;SDS011;1441;48.886;8.728;2024-02-26T02:02:20;1.87;;;0.77;;
2866;SDS011;1441;48.886;8.728;2024-02-26T02:04:46;0.70;;;0.70;;
2866;SDS011;1441;48.886;8.728;2024-02-26T02:07:11;0.70;;;0.70;;
2866;SDS011;1441;48.886;8.728;2024-02-26T02:09:38;2.30;;;0.93;;
2866;SDS011;1441;48.886;8.728;2024-02-26T02:12:03;0.63;;;0.63;;
2866;SDS011;1441;48.886;8.728;2024-02-26T02:14:30;0.60;;;0.60;;
2866;SDS011;1441;48.886;8.728;2024-02-26T02:16:56;0.60;;;0.60;;
2866;SDS011;1441;48.886;8.728;2024-02-26T02:19:21;0.70;;;0.70;;
2866;SDS011;1441;48.886;8.728;2024-02-26T02:21:47;0.93;;;0.60;;
2866;SDS011;1441;48.886;8.728;2024-02-26T02:24:12;0.90;;;0.50;;
2866;SDS011;1441;48.886;8.728;2024-02-26T02:26:38;0.50;;;0.50;;
2866;SDS011;1441;48.886;8.728;2024-02-26T02:29:03;0.47;;;0.47;;
2866;SDS011;1441;48.886;8.728;2024-02-26T02:31:30;0.60;;;0.50;;
2866;SDS011;1441;48.886;8.728;2024-02-26T02:33:56;1.03;;;0.43;;
2866;SDS011;1441;48.886;8.728;2024-02-26T02:36:22;1.77;;;0.50;;
2866;SDS011;1441;48.886;8.728;2024-02-26T02:38:48;0.97;;;0.50;;
2866;SDS011;1441;48.886;8.728;2024-02-26T02:41:17;0.83;;;0.40;;
2866;SDS011;1441;48.886;8.728;2024-02-26T02:43:43;0.40;;;0.40;;
2866;SDS011;1441;48.886;8.728;2024-02-26T02:46:09;1.93;;;0.40;;
2866;SDS011;1441;48.886;8.728;2024-02-26T02:48:36;0.90;;;0.60;;
2866;SDS011;1441;48.886;8.728;2024-02-26T02:51:02;0.50;;;0.50;;
2866;SDS011;1441;48.886;8.728;2024-02-26T02:53:28;0.70;;;0.70;;
2866;SDS011;1441;48.886;8.728;2024-02-26T02:55:53;0.73;;;0.73;;
2866;SDS011;1441;48.886;8.728;2024-02-26T02:58:19;0.50;;;0.50;;
2866;SDS011;1441;48.886;8.728;2024-02-26T03:00:44;0.50;;;0.50;;
2866;SDS011;1441;48.886;8.728;2024-02-26T03:03:10;0.50;;;0.50;;
2866;SDS011;1441;48.886;8.728;2024-02-26T03:05:35;0.83;;;0.57;;
2866;SDS011;1441;48.886;8.728;2024-02-26T03:08:01;0.97;;;0.43;;
2866;SDS011;1441;48.886;8.728;2024-02-26T03:10:27;0.80;;;0.50;;
2866;SDS011;1441;48.886;8.728;2024-02-26T03:12:53;1.47;;;0.40;;
2866;SDS011;1441;48.886;8.728;2024-02-26T03:15:19;0.40;;;0.40;;
2866;SDS011;1441;48.886;8.728;2024-02-26T03:17:45;0.40;;;0.40;;
2866;SDS011;1441;48.886;8.728;2024-02-26T03:20:10;0.50;;;0.50;;
2866;SDS011;1441;48.886;8.728;2024-02-26T03:22:38;1.43;;;0.43;;
2866;SDS011;1441;48.886;8.728;2024-02-26T03:25:04;1.03;;;0.40;;
2866;SDS011;1441;48.886;8.728;2024-02-26T03:27:30;0.40;;;0.40;;
2866;SDS011;1441;48.886;8.728;2024-02-26T03:29:55;0.67;;;0.60;;
2866;SDS011;1441;48.886;8.728;2024-02-26T03:32:21;0.40;;;0.40;;
2866;SDS011;1441;48.886;8.728;2024-02-26T03:34:47;0.53;;;0.50;;
2866;SDS011;1441;48.886;8.728;2024-02-26T03:37:12;0.40;;;0.40;;
2866;SDS011;1441;48.886;8.728;2024-02-26T03:39:38;0.40;;;0.40;;
2866;SDS011;1441;48.886;8.728;2024-02-26T03:42:04;0.50;;;0.50;;
2866;SDS011;1441;48.886;8.728;2024-02-26T03:44:29;0.40;;;0.40;;
2866;SDS011;1441;48.886;8.728;2024-02-26T03:46:55;0.40;;;0.40;;
2866;SDS011;1441;48.886;8.728;2024-02-26T03:49:20;0.50;;;0.50;;
2866;SDS011;1441;48.886;8.728;2024-02-26T03:51:47;0.40;;;0.40;;
2866;SDS011;1441;48.886;8.728;2024-02-26T03:54:13;0.43;;;0.40;;
2866;SDS011;1441;48.886;8.728;2024-02-26T03:56:39;0.40;;;0.40;;
2866;SDS011;1441;48.886;8.728;2024-02-26T03:59:04;0.40;;;0.40;;
2866;SDS011;1441;48.886;8.728;2024-02-26T04:01:30;0.40;;;0.40;;
2866;SDS011;1441;48.886;8.728;2024-02-26T04:03:55;0.50;;;0.50;;
2866;SDS011;1441;48.886;8.728;2024-02-26T04:06:21;0.50;;;0.50;;
2866;SDS011;1441;48.886;8.728;2024-02-26T04:08:47;0.47;;;0.40;;
2866;SDS011;1441;48.886;8.728;2024-02-26T04:11:13;0.50;;;0.50;;
2866;SDS011;1441;48.886;8.728;2024-02-26T04:13:42;0.50;;;0.50;;
2866;SDS011;1441;48.886;8.728;2024-02-26T04:16:11;0.50;;;0.50;;
2866;SDS011;1441;48.886;8.728;2024-02-26T04:18:37;0.57;;;0.57;;
2866;SDS011;1441;48.886;8.728;2024-02-26T04:21:03;1.30;;;0.50;;
2866;SDS011;1441;48.886;8.728;2024-02-26T04:23:30;0.50;;;0.40;;
2866;SDS011;1441;48.886;8.728;2024-02-26T04:25:55;0.40;;;0.40;;
2866;SDS011;1441;48.886;8.728;2024-02-26T04:28:21;0.50;;;0.50;;
2866;SDS011;1441;48.886;8.728;2024-02-26T04:30:47;0.50;;;0.50;;
2866;SDS011;1441;48.886;8.728;2024-02-26T04:33:13;0.50;;;0.50;;
2866;SDS011;1441;48.886;8.728;2024-02-26T04:35:39;0.50;;;0.50;;
2866;SDS011;1441;48.886;8.728;2024-02-26T04:38:04;0.60;;;0.60;;
2866;SDS011;1441;48.886;8.728;2024-02-26T04:40:30;0.50;;;0.50;;
2866;SDS011;1441;48.886;8.728;2024-02-26T04:42:55;0.70;;;0.70;;
2866;SDS011;1441;48.886;8.728;2024-02-26T04:45:21;0.50;;;0.50;;
2866;SDS011;1441;48.886;8.728;2024-02-26T04:47:46;0.50;;;0.40;;
2866;SDS011;1441;48.886;8.728;2024-02-26T04:50:12;0.47;;;0.47;;
2866;SDS011;1441;48.886;8.728;2024-02-26T04:52:37;1.67;;;0.50;;
2866;SDS011;1441;48.886;8.728;2024-02-26T04:55:03;1.30;;;0.60;;
2866;SDS011;1441;48.886;8.728;2024-02-26T04:57:29;0.83;;;0.83;;
2866;SDS011;1441;48.886;8.728;2024-02-26T04:59:54;0.70;;;0.70;;
2866;SDS011;1441;48.886;8.728;2024-02-26T05:02:20;0.50;;;0.50;;
2866;SDS011;1441;48.886;8.728;2024-02-26T05:04:46;0.40;;;0.40;;
2866;SDS011;1441;48.886;8.728;2024-02-26T05:07:12;0.50;;;0.50;;
2866;SDS011;1441;48.886;8.728;2024-02-26T05:09:37;1.13;;;0.50;;
2866;SDS011;1441;48.886;8.728;2024-02-26T05:12:03;1.53;;;0.60;;
2866;SDS011;1441;48.886;8.728;2024-02-26T05:14:29;1.70;;;0.70;;
2866;SDS011;1441;48.886;8.728;2024-02-26T05:16:54;0.73;;;0.60;;
2866;SDS011;1441;48.886;8.728;2024-02-26T05:19:21;0.50;;;0.50;;
2866;SDS011;1441;48.886;8.728;2024-02-26T05:21:46;0.43;;;0.43;;
2866;SDS011;1441;48.886;8.728;2024-02-26T05:24:14;0.50;;;0.50;;
2866;SDS011;1441;48.886;8.728;2024-02-26T05:26:40;0.50;;;0.50;;
2866;SDS011;1441;48.886;8.728;2024-02-26T05:29:06;1.47;;;0.50;;
2866;SDS011;1441;48.886;8.728;2024-02-26T05:31:31;0.50;;;0.50;;
2866;SDS011;1441;48.886;8.728;2024-02-26T05:33:57;0.60;;;0.60;;
2866;SDS011;1441;48.886;8.728;2024-02-26T05:36:23;0.70;;;0.70;;
2866;SDS011;1441;48.886;8.728;2024-02-26T05:38:49;0.40;;;0.40;;
2866;SDS011;1441;48.886;8.728;2024-02-26T05:41:18;3.90;;;0.60;;
2866;SDS011;1441;48.886;8.728;2024-02-26T05:43:48;0.50;;;0.50;;
2866;SDS011;1441;48.886;8.728;2024-02-26T05:46:16;0.40;;;0.40;;
2866;SDS011;1441;48.886;8.728;2024-02-26T05:48:47;0.73;;;0.70;;
2866;SDS011;1441;48.886;8.728;2024-02-26T05:51:14;0.50;;;0.40;;
2866;SDS011;1441;48.886;8.728;2024-02-26T05:53:43;0.40;;;0.40;;
2866;SDS011;1441;48.886;8.728;2024-02-26T05:56:10;0.50;;;0.50;;
2866;SDS011;1441;48.886;8.728;2024-02-26T05:58:36;0.60;;;0.60;;
2866;SDS011;1441;48.886;8.728;2024-02-26T06:01:01;0.43;;;0.43;;
2866;SDS011;1441;48.886;8.728;2024-02-26T06:03:27;0.40;;;0.40;;
2866;SDS011;1441;48.886;8.728;2024-02-26T06:05:53;0.50;;;0.50;;
2866;SDS011;1441;48.886;8.728;2024-02-26T06:08:18;1.53;;;0.40;;
2866;SDS011;1441;48.886;8.728;2024-02-26T06:10:44;0.40;;;0.40;;
2866;SDS011;1441;48.886;8.728;2024-02-26T06:13:09;0.43;;;0.43;;
2866;SDS011;1441;48.886;8.728;2024-02-26T06:15:35;0.40;;;0.40;;
2866;SDS011;1441;48.886;8.728;2024-02-26T06:18:00;1.43;;;0.40;;
2866;SDS011;1441;48.886;8.728;2024-02-26T06:20:26;0.40;;;0.40;;
2866;SDS011;1441;48.886;8.728;2024-02-26T06:22:52;0.50;;;0.50;;
2866;SDS011;1441;48.886;8.728;2024-02-26T06:25:17;0.50;;;0.40;;
2866;SDS011;1441;48.886;8.728;2024-02-26T06:27:43;0.50;;;0.50;;
2866;SDS011;1441;48.886;8.728;2024-02-26T06:30:08;0.60;;;0.60;;
2866;SDS011;1441;48.886;8.728;2024-02-26T06:32:36;1.20;;;0.80;;
2866;SDS011;1441;48.886;8.728;2024-02-26T06:35:02;0.40;;;0.40;;
2866;SDS011;1441;48.886;8.728;2024-02-26T06:37:31;0.50;;;0.50;;
2866;SDS011;1441;48.886;8.728;2024-02-26T06:39:58;0.60;;;0.60;;
2866;SDS011;1441;48.886;8.728;2024-02-26T06:42:31;0.67;;;0.60;;
2866;SDS011;1441;48.886;8.728;2024-02-26T06:44:57;0.50;;;0.50;;
2866;SDS011;1441;48.886;8.728;2024-02-26T06:47:23;0.40;;;0.40;;
2866;SDS011;1441;48.886;8.728;2024-02-26T06:49:48;0.40;;;0.40;;
2866;SDS011;1441;48.886;8.728;2024-02-26T06:52:14;0.50;;;0.50;;
2866;SDS011;1441;48.886;8.728;2024-02-26T06:54:39;0.60;;;0.60;;
2866;SDS011;1441;48.886;8.728;2024-02-26T06:57:05;2.00;;;0.60;;
2866;SDS011;1441;48.886;8.728;2024-02-26T06:59:30;0.40;;;0.40;;
2866;SDS011;1441;48.886;8.728;2024-02-26T07:01:56;0.47;;;0.47;;
2866;SDS011;1441;48.886;8.728;2024-02-26T07:04:21;0.73;;;0.40;;
2866;SDS011;1441;48.886;8.728;2024-02-26T07:06:47;1.17;;;0.40;;
2866;SDS011;1441;48.886;8.728;2024-02-26T07:09:13;0.40;;;0.40;;
2866;SDS011;1441;48.886;8.728;2024-02-26T07:11:39;0.30;;;0.30;;
2866;SDS011;1441;48.886;8.728;2024-02-26T07:14:07;0.50;;;0.50;;
2866;SDS011;1441;48.886;8.728;2024-02-26T07:16:35;0.50;;;0.50;;
2866;SDS011;1441;48.886;8.728;2024-02-26T07:19:01;1.30;;;0.40;;
2866;SDS011;1441;48.886;8.728;2024-02-26T07:21:27;0.40;;;0.40;;
2866;SDS011;1441;48.886;8.728;2024-02-26T07:23:53;0.50;;;0.50;;
2866;SDS011;1441;48.886;8.728;2024-02-26T07:26:19;1.33;;;0.50;;
2866;SDS011;1441;48.886;8.728;2024-02-26T07:28:44;0.40;;;0.40;;
2866;SDS011;1441;48.886;8.728;2024-02-26T07:31:10;0.40;;;0.40;;
2866;SDS011;1441;48.886;8.728;2024-02-26T07:33:36;0.50;;;0.50;;
2866;SDS011;1441;48.886;8.728;2024-02-26T07:36:01;0.40;;;0.40;;
2866;SDS011;1441;48.886;8.728;2024-02-26T07:38:27;0.50;;;0.50;;
2866;SDS011;1441;48.886;8.728;2024-02-26T07:40:52;0.40;;;0.40;;
2866;SDS011;1441;48.886;8.728;2024-02-26T07:43:18;0.40;;;0.40;;
2866;SDS011;1441;48.886;8.728;2024-02-26T07:45:43;0.67;;;0.60;;
2866;SDS011;1441;48.886;8.728;2024-02-26T07:48:09;0.50;;;0.50;;
2866;SDS011;1441;48.886;8.728;2024-02-26T07:50:34;0.40;;;0.40;;
2866;SDS011;1441;48.886;8.728;2024-02-26T07:53:00;0.40;;;0.40;;
2866;SDS011;1441;48.886;8.728;2024-02-26T07:55:26;0.50;;;0.40;;
2866;SDS011;1441;48.886;8.728;2024-02-26T07:57:51;0.40;;;0.40;;
2866;SDS011;1441;48.886;8.728;2024-02-26T08:00:17;0.37;;;0.37;;
2866;SDS011;1441;48.886;8.728;2024-02-26T08:02:43;0.40;;;0.40;;
2866;SDS011;1441;48.886;8.728;2024-02-26T08:05:09;0.40;;;0.40;;
2866;SDS011;1441;48.886;8.728;2024-02-26T08:07:34;0.40;;;0.40;;
2866;SDS011;1441;48.886;8.728;2024-02-26T08:10:00;0.50;;;0.30;;
2866;SDS011;1441;48.886;8.728;2024-02-26T08:12:25;3.30;;;0.50;;
2866;SDS011;1441;48.886;8.728;2024-02-26T08:14:51;3.40;;;0.40;;
2866;SDS011;1441;48.886;8.728;2024-02-26T08:17:16;0.83;;;0.50;;
2866;SDS011;1441;48.886;8.728;2024-02-26T08:19:42;0.40;;;0.40;;
2866;SDS011;1441;48.886;8.728;2024-02-26T08:22:07;0.40;;;0.40;;
2866;SDS011;1441;48.886;8.728;2024-02-26T08:24:35;0.50;;;0.50;;
2866;SDS011;1441;48.886;8.728;2024-02-26T08:27:00;0.40;;;0.40;;
2866;SDS011;1441;48.886;8.728;2024-02-26T08:29:26;0.57;;;0.40;;
2866;SDS011;1441;48.886;8.728;2024-02-26T08:31:51;0.50;;;0.50;;
2866;SDS011;1441;48.886;8.728;2024-02-26T08:34:17;0.40;;;0.40;;
2866;SDS011;1441;48.886;8.728;2024-02-26T08:36:43;0.63;;;0.50;;
2866;SDS011;1441;48.886;8.728;2024-02-26T08:39:09;0.40;;;0.40;;
2866;SDS011;1441;48.886;8.728;2024-02-26T08:41:34;0.53;;;0.50;;
2866;SDS011;1441;48.886;8.728;2024-02-26T08:44:00;0.50;;;0.50;;
2866;SDS011;1441;48.886;8.728;2024-02-26T08:46:26;1.03;;;0.47;;
2866;SDS011;1441;48.886;8.728;2024-02-26T08:48:52;0.40;;;0.40;;
2866;SDS011;1441;48.886;8.728;2024-02-26T08:51:17;0.40;;;0.40;;
2866;SDS011;1441;48.886;8.728;2024-02-26T08:53:43;4.10;;;0.60;;
2866;SDS011;1441;48.886;8.728;2024-02-26T08:56:08;0.67;;;0.50;;
2866;SDS011;1441;48.886;8.728;2024-02-26T08:58:34;0.77;;;0.50;;
2866;SDS011;1441;48.886;8.728;2024-02-26T09:00:59;0.70;;;0.47;;
2866;SDS011;1441;48.886;8.728;2024-02-26T09:03:25;0.50;;;0.50;;
2866;SDS011;1441;48.886;8.728;2024-02-26T09:05:51;0.50;;;0.50;;
2866;SDS011;1441;48.886;8.728;2024-02-26T09:08:16;0.50;;;0.50;;
2866;SDS011;1441;48.886;8.728;2024-02-26T09:10:42;0.40;;;0.40;;
2866;SDS011;1441;48.886;8.728;2024-02-26T09:13:08;0.73;;;0.50;;
2866;SDS011;1441;48.886;8.728;2024-02-26T09:15:33;0.40;;;0.40;;
2866;SDS011;1441;48.886;8.728;2024-02-26T09:17:59;0.50;;;0.50;;
2866;SDS011;1441;48.886;8.728;2024-02-26T09:20:24;0.40;;;0.40;;
2866;SDS011;1441;48.886;8.728;2024-02-26T09:22:50;0.97;;;0.60;;
2866;SDS011;1441;48.886;8.728;2024-02-26T09:25:16;0.50;;;0.50;;
2866;SDS011;1441;48.886;8.728;2024-02-26T09:27:42;0.40;;;0.40;;
2866;SDS011;1441;48.886;8.728;2024-02-26T09:30:09;0.47;;;0.47;;
2866;SDS011;1441;48.886;8.728;2024-02-26T09:32:35;0.70;;;0.50;;
2866;SDS011;1441;48.886;8.728;2024-02-26T09:35:02;0.50;;;0.40;;
2866;SDS011;1441;48.886;8.728;2024-02-26T09:37:28;1.17;;;0.70;;
2866;SDS011;1441;48.886;8.728;2024-02-26T09:39:53;1.13;;;0.50;;
2866;SDS011;1441;48.886;8.728;2024-02-26T09:42:19;0.60;;;0.60;;
2866;SDS011;1441;48.886;8.728;2024-02-26T09:44:45;1.03;;;0.57;;
2866;SDS011;1441;48.886;8.728;2024-02-26T09:47:13;1.00;;;0.60;;
2866;SDS011;1441;48.886;8.728;2024-02-26T09:49:42;1.00;;;1.00;;
2866;SDS011;1441;48.886;8.728;2024-02-26T09:52:08;0.70;;;0.63;;
2866;SDS011;1441;48.886;8.728;2024-02-26T09:54:35;1.23;;;0.60;;
2866;SDS011;1441;48.886;8.728;2024-02-26T09:57:02;0.50;;;0.50;;
2866;SDS011;1441;48.886;8.728;2024-02-26T09:59:29;0.60;;;0.60;;
2866;SDS011;1441;48.886;8.728;2024-02-26T10:01:59;1.27;;;0.70;;
2866;SDS011;1441;48.886;8.728;2024-02-26T10:04:25;1.43;;;0.50;;
2866;SDS011;1441;48.886;8.728;2024-02-26T10:06:52;0.60;;;0.60;;
2866;SDS011;1441;48.886;8.728;2024-02-26T10:09:18;0.60;;;0.60;;
2866;SDS011;1441;48.886;8.728;2024-02-26T10:11:44;0.97;;;0.60;;
2866;SDS011;1441;48.886;8.728;2024-02-26T10:14:14;1.87;;;0.60;;
2866;SDS011;1441;48.886;8.728;2024-02-26T10:16:40;0.57;;;0.57;;
2866;SDS011;1441;48.886;8.728;2024-02-26T10:19:06;0.60;;;0.60;;
2866;SDS011;1441;48.886;8.728;2024-02-26T10:21:32;1.07;;;0.60;;
2866;SDS011;1441;48.886;8.728;2024-02-26T10:23:57;0.60;;;0.60;;
2866;SDS011;1441;48.886;8.728;2024-02-26T10:26:23;0.50;;;0.50;;
2866;SDS011;1441;48.886;8.728;2024-02-26T10:28:48;0.50;;;0.50;;
2866;SDS011;1441;48.886;8.728;2024-02-26T10:31:14;0.47;;;0.47;;
2866;SDS011;1441;48.886;8.728;2024-02-26T10:33:40;0.50;;;0.50;;
2866;SDS011;1441;48.886;8.728;2024-02-26T10:36:07;0.60;;;0.50;;
2866;SDS011;1441;48.886;8.728;2024-02-26T10:38:33;0.60;;;0.60;;
2866;SDS011;1441;48.886;8.728;2024-02-26T10:41:12;1.60;;;0.63;;
2866;SDS011;1441;48.886;8.728;2024-02-26T10:43:40;0.93;;;0.50;;
2866;SDS011;1441;48.886;8.728;2024-02-26T10:46:08;0.87;;;0.60;;
2866;SDS011;1441;48.886;8.728;2024-02-26T10:48:34;0.87;;;0.50;;
2866;SDS011;1441;48.886;8.728;2024-02-26T10:51:00;0.57;;;0.57;;
2866;SDS011;1441;48.886;8.728;2024-02-26T10:53:27;0.70;;;0.50;;
2866;SDS011;1441;48.886;8.728;2024-02-26T10:55:55;0.53;;;0.53;;
2866;SDS011;1441;48.886;8.728;2024-02-26T10:58:23;0.40;;;0.40;;
2866;SDS011;1441;48.886;8.728;2024-02-26T11:00:50;0.70;;;0.60;;
2866;SDS011;1441;48.886;8.728;2024-02-26T11:03:17;2.63;;;0.87;;
2866;SDS011;1441;48.886;8.728;2024-02-26T11:05:45;2.20;;;1.53;;
2866;SDS011;1441;48.886;8.728;2024-02-26T11:08:18;1.90;;;1.00;;
2866;SDS011;1441;48.886;8.728;2024-02-26T11:10:46;0.50;;;0.50;;
2866;SDS011;1441;48.886;8.728;2024-02-26T11:13:14;0.67;;;0.60;;
2866;SDS011;1441;48.886;8.728;2024-02-26T11:15:43;0.60;;;0.60;;
2866;SDS011;1441;48.886;8.728;2024-02-26T11:18:12;1.17;;;0.60;;
2866;SDS011;1441;48.886;8.728;2024-02-26T11:20:40;1.07;;;0.50;;
2866;SDS011;1441;48.886;8.728;2024-02-26T11:23:06;0.73;;;0.50;;
2866;SDS011;1441;48.886;8.728;2024-02-26T11:25:33;1.37;;;0.67;;
2866;SDS011;1441;48.886;8.728;2024-02-26T11:28:01;2.43;;;1.43;;
2866;SDS011;1441;48.886;8.728;2024-02-26T11:30:32;0.53;;;0.53;;
2866;SDS011;1441;48.886;8.728;2024-02-26T11:33:00;0.60;;;0.60;;
2866;SDS011;1441;48.886;8.728;2024-02-26T11:35:26;0.80;;;0.80;;
2866;SDS011;1441;48.886;8.728;2024-02-26T11:37:55;0.50;;;0.50;;
2866;SDS011;1441;48.886;8.728;2024-02-26T11:40:25;1.33;;;0.80;;
2866;SDS011;1441;48.886;8.728;2024-02-26T11:42:51;2.30;;;0.50;;
2866;SDS011;1441;48.886;8.728;2024-02-26T11:48:21;0.63;;;0.63;;
2866;SDS011;1441;48.886;8.728;2024-02-26T11:50:49;0.60;;;0.60;;
2866;SDS011;1441;48.886;8.728;2024-02-26T11:56:34;0.50;;;0.50;;
2866;SDS011;1441;48.886;8.728;2024-02-26T11:59:02;0.50;;;0.50;;
2866;SDS011;1441;48.886;8.728;2024-02-26T12:01:35;0.50;;;0.50;;
2866;SDS011;1441;48.886;8.728;2024-02-26T12:04:05;0.50;;;0.50;;
2866;SDS011;1441;48.886;8.728;2024-02-26T12:06:39;0.50;;;0.50;;
2866;SDS011;1441;48.886;8.728;2024-02-26T12:09:07;0.50;;;0.50;;
2866;SDS011;1441;48.886;8.728;2024-02-26T12:11:34;0.43;;;0.43;;
2866;SDS011;1441;48.886;8.728;2024-02-26T12:14:03;1.17;;;0.60;;
2866;SDS011;1441;48.886;8.728;2024-02-26T12:16:39;0.80;;;0.80;;
2866;SDS011;1441;48.886;8.728;2024-02-26T12:19:08;0.60;;;0.60;;
2866;SDS011;1441;48.886;8.728;2024-02-26T12:21:34;0.70;;;0.60;;
2866;SDS011;1441;48.886;8.728;2024-02-26T12:24:12;1.13;;;0.60;;
2866;SDS011;1441;48.886;8.728;2024-02-26T12:26:39;0.70;;;0.40;;
2866;SDS011;1441;48.886;8.728;2024-02-26T12:29:05;0.40;;;0.40;;
2866;SDS011;1441;48.886;8.728;2024-02-26T12:31:34;0.80;;;0.40;;
2866;SDS011;1441;48.886;8.728;2024-02-26T12:34:04;1.03;;;0.93;;
2866;SDS011;1441;48.886;8.728;2024-02-26T12:36:30;0.63;;;0.50;;
2866;SDS011;1441;48.886;8.728;2024-02-26T12:38:55;1.13;;;0.80;;
2866;SDS011;1441;48.886;8.728;2024-02-26T12:41:22;1.33;;;1.23;;
2866;SDS011;1441;48.886;8.728;2024-02-26T12:43:48;1.40;;;1.10;;
2866;SDS011;1441;48.886;8.728;2024-02-26T12:46:13;1.10;;;0.87;;
2866;SDS011;1441;48.886;8.728;2024-02-26T12:48:42;2.10;;;0.70;;
2866;SDS011;1441;48.886;8.728;2024-02-26T12:51:09;1.27;;;1.20;;
2866;SDS011;1441;48.886;8.728;2024-02-26T12:53:36;2.47;;;1.20;;
2866;SDS011;1441;48.886;8.728;2024-02-26T12:56:03;13.17;;;1.63;;
2866;SDS011;1441;48.886;8.728;2024-02-26T12:58:29;2.53;;;1.30;;
2866;SDS011;1441;48.886;8.728;2024-02-26T13:00:56;2.30;;;1.23;;
2866;SDS011;1441;48.886;8.728;2024-02-26T13:03:22;1.70;;;1.30;;
2866;SDS011;1441;48.886;8.728;2024-02-26T13:05:48;1.13;;;1.13;;
2866;SDS011;1441;48.886;8.728;2024-02-26T13:08:18;1.77;;;1.33;;
2866;SDS011;1441;48.886;8.728;2024-02-26T13:10:47;3.20;;;1.30;;
2866;SDS011;1441;48.886;8.728;2024-02-26T13:13:17;1.80;;;1.00;;
2866;SDS011;1441;48.886;8.728;2024-02-26T13:15:43;1.20;;;1.10;;
2866;SDS011;1441;48.886;8.728;2024-02-26T13:18:15;1.20;;;1.20;;
2866;SDS011;1441;48.886;8.728;2024-02-26T13:20:41;2.70;;;1.10;;
2866;SDS011;1441;48.886;8.728;2024-02-26T13:23:08;1.10;;;1.10;;
2866;SDS011;1441;48.886;8.728;2024-02-26T13:25:36;1.23;;;1.13;;
2866;SDS011;1441;48.886;8.728;2024-02-26T13:28:07;1.50;;;1.40;;
2866;SDS011;1441;48.886;8.728;2024-02-26T13:30:34;1.87;;;1.20;;
2866;SDS011;1441;48.886;8.728;2024-02-26T13:33:09;1.03;;;0.93;;
2866;SDS011;1441;48.886;8.728;2024-02-26T13:35:37;1.37;;;1.00;;
2866;SDS011;1441;48.886;8.728;2024-02-26T13:38:04;4.73;;;1.00;;
2866;SDS011;1441;48.886;8.728;2024-02-26T13:40:31;1.00;;;1.00;;
2866;SDS011;1441;48.886;8.728;2024-02-26T13:42:57;2.17;;;1.13;;
2866;SDS011;1441;48.886;8.728;2024-02-26T13:45:23;2.20;;;1.17;;
2866;SDS011;1441;48.886;8.728;2024-02-26T13:47:49;2.80;;;0.90;;
2866;SDS011;1441;48.886;8.728;2024-02-26T13:50:14;1.53;;;1.23;;
2866;SDS011;1441;48.886;8.728;2024-02-26T13:52:40;1.20;;;0.73;;
2866;SDS011;1441;48.886;8.728;2024-02-26T13:55:05;2.03;;;1.33;;
2866;SDS011;1441;48.886;8.728;2024-02-26T13:57:32;0.93;;;0.70;;
2866;SDS011;1441;48.886;8.728;2024-02-26T13:59:58;1.30;;;1.20;;
2866;SDS011;1441;48.886;8.728;2024-02-26T14:02:23;3.03;;;1.17;;
2866;SDS011;1441;48.886;8.728;2024-02-26T14:04:49;2.20;;;0.90;;
2866;SDS011;1441;48.886;8.728;2024-02-26T14:07:14;1.07;;;0.80;;
2866;SDS011;1441;48.886;8.728;2024-02-26T14:09:42;1.00;;;1.00;;
2866;SDS011;1441;48.886;8.728;2024-02-26T14:12:07;1.10;;;0.87;;
2866;SDS011;1441;48.886;8.728;2024-02-26T14:14:33;0.80;;;0.70;;
2866;SDS011;1441;48.886;8.728;2024-02-26T14:17:03;1.23;;;0.77;;
2866;SDS011;1441;48.886;8.728;2024-02-26T14:19:29;3.23;;;1.00;;
2866;SDS011;1441;48.886;8.728;2024-02-26T14:21:54;2.50;;;0.90;;
2866;SDS011;1441;48.886;8.728;2024-02-26T14:24:20;3.33;;;0.80;;
2866;SDS011;1441;48.886;8.728;2024-02-26T14:26:45;1.23;;;0.90;;
2866;SDS011;1441;48.886;8.728;2024-02-26T14:29:11;1.50;;;1.20;;
2866;SDS011;1441;48.886;8.728;2024-02-26T14:31:36;2.30;;;0.90;;
2866;SDS011;1441;48.886;8.728;2024-02-26T14:34:02;1.80;;;0.90;;
2866;SDS011;1441;48.886;8.728;2024-02-26T14:36:28;0.83;;;0.80;;
2866;SDS011;1441;48.886;8.728;2024-02-26T14:38:54;0.70;;;0.70;;
2866;SDS011;1441;48.886;8.728;2024-02-26T14:41:19;1.77;;;0.80;;
2866;SDS011;1441;48.886;8.728;2024-02-26T14:43:45;0.80;;;0.80;;
2866;SDS011;1441;48.886;8.728;2024-02-26T14:46:10;1.50;;;0.70;;
2866;SDS011;1441;48.886;8.728;2024-02-26T14:48:36;1.10;;;0.60;;
2866;SDS011;1441;48.886;8.728;2024-02-26T14:51:02;1.13;;;0.90;;
2866;SDS011;1441;48.886;8.728;2024-02-26T14:53:27;2.27;;;0.60;;
2866;SDS011;1441;48.886;8.728;2024-02-26T14:55:53;1.23;;;0.80;;
2866;SDS011;1441;48.886;8.728;2024-02-26T14:58:18;0.60;;;0.50;;
2866;SDS011;1441;48.886;8.728;2024-02-26T15:00:44;0.60;;;0.60;;
2866;SDS011;1441;48.886;8.728;2024-02-26T15:03:10;0.60;;;0.60;;
2866;SDS011;1441;48.886;8.728;2024-02-26T15:05:35;0.90;;;0.63;;
2866;SDS011;1441;48.886;8.728;2024-02-26T15:08:01;0.70;;;0.70;;
2866;SDS011;1441;48.886;8.728;2024-02-26T15:10:27;0.97;;;0.40;;
2866;SDS011;1441;48.886;8.728;2024-02-26T15:12:56;0.53;;;0.40;;
2866;SDS011;1441;48.886;8.728;2024-02-26T15:15:22;0.60;;;0.60;;